createdAt,value
2022-08-25T00:01:16.785Z,98594.22
2022-08-25T00:03:44.842Z,98655.72
2022-08-25T00:06:12.050Z,98655.22
2022-08-25T00:08:39.260Z,98612.13
2022-08-25T00:11:08.038Z,98644.22
2022-08-25T00:13:34.901Z,98604.50
2022-08-25T00:16:01.615Z,98597.81
2022-08-25T00:18:28.575Z,98610.34
2022-08-25T00:20:55.213Z,98580.97
2022-08-25T00:23:21.897Z,98605.00
2022-08-25T00:25:48.978Z,98651.47
2022-08-25T00:28:15.658Z,98593.09
2022-08-25T00:30:43.470Z,98618.75
2022-08-25T00:33:10.518Z,98617.13
2022-08-25T00:35:37.222Z,98599.38
2022-08-25T00:38:04.160Z,98625.78
2022-08-25T00:40:31.351Z,98582.81
2022-08-25T00:42:58.072Z,98609.94
2022-08-25T00:45:25.019Z,98621.63
2022-08-25T00:47:51.841Z,98627.69
2022-08-25T00:50:19.421Z,98602.66
2022-08-25T00:52:53.672Z,98607.25
2022-08-25T00:55:35.805Z,98647.22
2022-08-25T00:58:14.218Z,98580.31
2022-08-25T01:00:45.072Z,98648.13
2022-08-25T01:03:12.580Z,98638.47
2022-08-25T01:05:42.975Z,98575.94
2022-08-25T01:08:10.711Z,98586.69
2022-08-25T01:10:40.600Z,98597.25
2022-08-25T01:13:18.900Z,98629.03
2022-08-25T01:15:47.666Z,98619.78
2022-08-25T01:18:15.247Z,98590.63
2022-08-25T01:20:42.866Z,98601.38
2022-08-25T01:23:09.423Z,98594.19
2022-08-25T01:25:42.238Z,98649.97
2022-08-25T01:28:09.791Z,98625.09
2022-08-25T01:30:36.727Z,98646.09
2022-08-25T01:33:09.092Z,98639.72
2022-08-25T01:35:36.790Z,98535.44
2022-08-25T01:38:05.454Z,98599.16
2022-08-25T01:40:33.178Z,98594.75
2022-08-25T01:43:15.027Z,98639.41
2022-08-25T01:45:45.803Z,98542.91
2022-08-25T01:48:13.519Z,98578.78
2022-08-25T01:50:41.486Z,98637.06
2022-08-25T01:53:13.561Z,98566.88
2022-08-25T01:55:40.431Z,98615.63
2022-08-25T01:58:07.030Z,98576.53
2022-08-25T02:00:33.810Z,98575.34
2022-08-25T02:03:00.587Z,98539.41
2022-08-25T02:05:27.641Z,98584.00
2022-08-25T02:07:54.737Z,98623.19
2022-08-25T02:10:21.390Z,98528.38
2022-08-25T02:12:49.941Z,98554.75
2022-08-25T02:15:16.965Z,98584.56
2022-08-25T02:17:43.530Z,98566.28
2022-08-25T02:20:10.864Z,98551.19
2022-08-25T02:22:37.451Z,98577.09
2022-08-25T02:25:04.704Z,98563.78
2022-08-25T02:27:31.452Z,98566.88
2022-08-25T02:29:58.128Z,98549.16
2022-08-25T02:32:24.707Z,98537.22
2022-08-25T02:34:51.463Z,98594.72
2022-08-25T02:37:18.012Z,98509.63
2022-08-25T02:39:44.671Z,98566.84
2022-08-25T02:42:11.546Z,98552.16
2022-08-25T02:44:38.312Z,98620.19
2022-08-25T02:47:04.935Z,98603.44
2022-08-25T02:49:31.661Z,98581.81
2022-08-25T02:51:58.387Z,98539.75
2022-08-25T02:54:25.068Z,98594.00
2022-08-25T02:56:51.692Z,98417.31
2022-08-25T02:59:18.444Z,98539.91
2022-08-25T03:01:45.697Z,98598.25
2022-08-25T03:04:13.036Z,98617.91
2022-08-25T03:06:39.634Z,98589.44
2022-08-25T03:09:06.740Z,98540.44
2022-08-25T03:11:33.597Z,98613.22
2022-08-25T03:14:00.279Z,98577.78
2022-08-25T03:16:28.064Z,98549.56
2022-08-25T03:18:55.562Z,98598.75
2022-08-25T03:21:22.625Z,98583.94
2022-08-25T03:23:49.269Z,98567.81
2022-08-25T03:26:15.962Z,98549.81
2022-08-25T03:28:42.620Z,98569.38
2022-08-25T03:31:09.683Z,98561.97
2022-08-25T03:33:36.952Z,98468.00
2022-08-25T03:36:04.457Z,98546.00
2022-08-25T03:38:31.284Z,98518.63
2022-08-25T03:40:57.910Z,98521.03
2022-08-25T03:43:24.692Z,98564.25
2022-08-25T03:45:51.295Z,98595.22
2022-08-25T03:48:18.069Z,98559.81
2022-08-25T03:50:50.738Z,98542.41
2022-08-25T03:53:19.942Z,98530.41
2022-08-25T03:55:47.038Z,98449.34
2022-08-25T03:58:14.175Z,98550.25
2022-08-25T04:00:40.892Z,98547.16
2022-08-25T04:03:07.677Z,98557.19
2022-08-25T04:05:34.260Z,98538.97
2022-08-25T04:08:01.191Z,98564.72
2022-08-25T04:10:27.788Z,98540.34
2022-08-25T04:12:54.432Z,98533.81
2022-08-25T04:15:24.167Z,98550.97
2022-08-25T04:17:57.377Z,98543.63
2022-08-25T04:20:23.970Z,98553.78
2022-08-25T04:22:50.829Z,98546.00
2022-08-25T04:25:17.560Z,98488.03
2022-08-25T04:27:44.242Z,98590.56
2022-08-25T04:30:11.522Z,98523.28
2022-08-25T04:32:38.232Z,98571.34
2022-08-25T04:35:05.222Z,98533.47
2022-08-25T04:37:32.199Z,98578.84
2022-08-25T04:39:59.105Z,98537.06
2022-08-25T04:42:25.854Z,98531.50
2022-08-25T04:44:52.609Z,98566.22
2022-08-25T04:47:19.282Z,98506.00
2022-08-25T04:49:45.891Z,98546.97
2022-08-25T04:52:13.221Z,98531.22
2022-08-25T04:54:41.952Z,98595.59
2022-08-25T04:57:08.687Z,98532.22
2022-08-25T04:59:35.353Z,98578.88
2022-08-25T05:02:02.774Z,98544.22
2022-08-25T05:04:30.135Z,98564.19
2022-08-25T05:06:57.281Z,98555.56
2022-08-25T05:09:25.259Z,98553.63
2022-08-25T05:11:53.059Z,98610.63
2022-08-25T05:14:20.843Z,98540.88
2022-08-25T05:16:48.494Z,98597.94
2022-08-25T05:19:15.403Z,98585.19
2022-08-25T05:21:42.071Z,98569.94
2022-08-25T05:24:08.626Z,98559.91
2022-08-25T05:26:35.633Z,98529.03
2022-08-25T05:29:04.153Z,98598.78
2022-08-25T05:31:32.136Z,98554.66
2022-08-25T05:33:59.374Z,98531.22
2022-08-25T05:36:27.881Z,98574.19
2022-08-25T05:38:54.421Z,98538.75
2022-08-25T05:41:25.518Z,98526.38
2022-08-25T05:43:52.335Z,98599.94
2022-08-25T05:46:20.279Z,98569.38
2022-08-25T05:48:47.735Z,98555.31
2022-08-25T05:51:15.048Z,98545.69
2022-08-25T05:53:49.212Z,98591.00
2022-08-25T05:56:17.231Z,98502.59
2022-08-25T05:58:44.509Z,98588.88
2022-08-25T06:01:20.525Z,98588.09
2022-08-25T06:03:47.952Z,98588.06
2022-08-25T06:06:16.334Z,98587.19
2022-08-25T06:08:44.428Z,98555.34
2022-08-25T06:11:12.599Z,98557.41
2022-08-25T06:13:39.934Z,98548.50
2022-08-25T06:16:06.878Z,98535.31
2022-08-25T06:18:33.697Z,98592.66
2022-08-25T06:21:08.111Z,98517.34
2022-08-25T06:23:34.758Z,98556.25
2022-08-25T06:26:01.476Z,98534.41
2022-08-25T06:28:28.239Z,98552.38
2022-08-25T06:31:01.186Z,98533.00
2022-08-25T06:33:28.584Z,98498.16
2022-08-25T06:35:55.767Z,98547.34
2022-08-25T06:38:23.728Z,98570.28
2022-08-25T06:40:50.527Z,98565.16
2022-08-25T06:43:17.170Z,98518.88
2022-08-25T06:45:43.720Z,98512.53
2022-08-25T06:48:10.967Z,98546.19
2022-08-25T06:50:41.564Z,98511.00
2022-08-25T06:53:08.201Z,98534.75
2022-08-25T06:55:34.795Z,98518.25
2022-08-25T06:58:02.338Z,98564.28
2022-08-25T07:00:32.491Z,98527.19
2022-08-25T07:03:00.584Z,98484.03
2022-08-25T07:05:42.646Z,98536.38
2022-08-25T07:08:09.703Z,98536.22
2022-08-25T07:10:36.743Z,98471.44
2022-08-25T07:13:03.395Z,98480.66
2022-08-25T07:15:29.958Z,98480.47
2022-08-25T07:17:58.130Z,98552.88
2022-08-25T07:22:51.393Z,98490.13
2022-08-25T07:25:18.131Z,98494.97
2022-08-25T07:27:44.846Z,98485.94
2022-08-25T07:30:11.582Z,98513.91
2022-08-25T07:32:42.070Z,98495.06
2022-08-25T07:35:10.868Z,98503.22
2022-08-25T07:37:48.805Z,98497.94
2022-08-25T07:40:23.450Z,98479.75
2022-08-25T07:42:52.187Z,98351.78
2022-08-25T07:45:21.185Z,98522.16
2022-08-25T07:47:48.563Z,98502.19
2022-08-25T07:50:18.692Z,98507.84
2022-08-25T07:52:45.379Z,98505.28
2022-08-25T07:55:20.473Z,98549.41
2022-08-25T07:57:48.906Z,98487.28
2022-08-25T08:00:21.040Z,98490.78
2022-08-25T08:02:47.830Z,98485.97
2022-08-25T08:05:15.427Z,98496.31
2022-08-25T08:07:43.739Z,98528.94
2022-08-25T08:13:00.818Z,98494.41
2022-08-25T08:15:29.794Z,98516.56
2022-08-25T08:17:57.891Z,98505.84
2022-08-25T08:20:24.921Z,98546.16
2022-08-25T08:22:52.075Z,98549.13
2022-08-25T08:25:21.311Z,98518.34
2022-08-25T08:27:51.017Z,98503.13
2022-08-25T08:30:22.021Z,98483.47
2022-08-25T08:33:09.120Z,98527.78
2022-08-25T08:35:37.452Z,98524.81
2022-08-25T08:38:13.524Z,98493.25
2022-08-25T08:40:59.722Z,98492.84
2022-08-25T08:43:28.344Z,98506.38
2022-08-25T08:45:59.700Z,98491.56
2022-08-25T08:48:53.098Z,98538.47
2022-08-25T08:51:23.402Z,98541.97
2022-08-25T08:54:14.971Z,98514.19
2022-08-25T08:56:48.379Z,98536.31
2022-08-25T08:59:30.158Z,98481.59
2022-08-25T09:02:00.391Z,98541.94
2022-08-25T09:04:37.547Z,98540.06
2022-08-25T09:07:10.689Z,98540.59
2022-08-25T09:09:41.360Z,98465.59
2022-08-25T09:12:08.627Z,98546.19
2022-08-25T09:14:53.741Z,98543.78
2022-08-25T09:17:54.434Z,98487.72
2022-08-25T09:20:46.921Z,98471.06
2022-08-25T09:23:32.764Z,98540.09
2022-08-25T09:26:29.879Z,98536.81
2022-08-25T09:29:22.661Z,98470.25
2022-08-25T09:31:54.720Z,98470.00
2022-08-25T09:34:28.292Z,98439.00
2022-08-25T09:36:54.992Z,98468.06
2022-08-25T09:39:23.510Z,98401.25
2022-08-25T09:41:53.410Z,98526.53
2022-08-25T09:44:32.226Z,98524.38
2022-08-25T09:47:18.058Z,98511.69
2022-08-25T09:49:54.682Z,98509.19
2022-08-25T09:52:28.297Z,98500.94
2022-08-25T09:54:56.818Z,98476.25
2022-08-25T09:57:36.754Z,98298.03
2022-08-25T10:00:31.630Z,98384.06
2022-08-25T10:03:22.727Z,98496.25
2022-08-25T10:06:07.814Z,98422.63
2022-08-25T10:08:53.622Z,98448.94
2022-08-25T10:11:50.110Z,98478.50
2022-08-25T10:14:18.993Z,98473.66
2022-08-25T10:16:47.703Z,98433.25
2022-08-25T10:19:28.145Z,98465.25
2022-08-25T10:22:06.826Z,98460.75
2022-08-25T10:24:35.170Z,98450.28
2022-08-25T10:27:09.520Z,98386.66
2022-08-25T10:29:54.957Z,98446.63
2022-08-25T10:32:33.870Z,98447.75
2022-08-25T10:35:09.481Z,98393.66
2022-08-25T10:38:02.822Z,98431.13
2022-08-25T10:40:41.069Z,98426.72
2022-08-25T10:43:42.975Z,98393.81
2022-08-25T10:46:31.381Z,98270.72
2022-08-25T10:49:04.509Z,98342.50
2022-08-25T10:51:43.457Z,98408.91
2022-08-25T10:54:24.252Z,98418.59
2022-08-25T10:57:13.351Z,98381.69
2022-08-25T10:59:40.140Z,98400.75
2022-08-25T11:02:22.043Z,98395.41
2022-08-25T11:04:52.514Z,98383.44
2022-08-25T11:07:24.436Z,98393.53
2022-08-25T11:09:54.801Z,98397.13
2022-08-25T11:12:30.137Z,98353.88
2022-08-25T11:15:19.461Z,98361.53
2022-08-25T11:17:57.521Z,98343.53
2022-08-25T11:20:33.517Z,98326.19
2022-08-25T11:23:28.284Z,98365.00
2022-08-25T11:26:03.099Z,98361.31
2022-08-25T11:28:29.835Z,98359.81
2022-08-25T11:31:00.493Z,98297.03
2022-08-25T11:33:29.167Z,98272.41
2022-08-25T11:36:00.957Z,98305.66
2022-08-25T11:38:37.586Z,98297.19
2022-08-25T11:41:11.287Z,98341.09
2022-08-25T11:44:12.433Z,98343.50
2022-08-25T11:47:14.313Z,98341.69
2022-08-25T11:50:25.936Z,98337.16
2022-08-25T11:53:16.163Z,98337.53
2022-08-25T11:55:53.464Z,98340.00
2022-08-25T11:58:35.455Z,98338.41
2022-08-25T12:01:06.142Z,98329.13
2022-08-25T12:03:35.560Z,98338.47
2022-08-25T12:06:23.937Z,98335.06
2022-08-25T12:09:00.007Z,98267.16
2022-08-25T12:11:39.598Z,98330.44
2022-08-25T12:14:28.730Z,98325.00
2022-08-25T12:16:55.498Z,98319.38
2022-08-25T12:19:34.288Z,98312.13
2022-08-25T12:22:01.017Z,98316.47
2022-08-25T12:24:48.140Z,98166.06
2022-08-25T12:27:34.246Z,98300.63
2022-08-25T12:30:00.820Z,98301.31
2022-08-25T12:33:01.446Z,98305.34
2022-08-25T12:35:38.392Z,98304.22
2022-08-25T12:38:10.863Z,98211.31
2022-08-25T12:40:45.306Z,98297.41
2022-08-25T12:43:27.444Z,98288.47
2022-08-25T12:46:23.108Z,98287.78
2022-08-25T12:48:53.694Z,98295.25
2022-08-25T12:51:26.902Z,98284.03
2022-08-25T12:53:59.407Z,98296.38
2022-08-25T12:56:32.071Z,98279.72
2022-08-25T12:59:01.690Z,98285.25
2022-08-25T13:01:47.320Z,98286.81
2022-08-25T13:04:35.306Z,98280.19
2022-08-25T13:07:14.113Z,98276.16
2022-08-25T13:10:05.561Z,98280.06
2022-08-25T13:13:01.753Z,98269.97
2022-08-25T13:15:47.176Z,98215.13
2022-08-25T13:18:37.095Z,98267.16
2022-08-25T13:21:08.539Z,98261.75
2022-08-25T13:23:40.807Z,97991.75
2022-08-25T13:26:07.744Z,98221.03
2022-08-25T13:28:40.752Z,98258.66
2022-08-25T13:31:20.497Z,98253.53
2022-08-25T13:33:58.210Z,98236.75
2022-08-25T13:36:27.555Z,98251.03
2022-08-25T13:38:54.832Z,98218.59
2022-08-25T13:41:29.220Z,98183.00
2022-08-25T13:44:00.785Z,98247.06
2022-08-25T13:46:27.960Z,98129.19
2022-08-25T13:49:05.032Z,98171.28
2022-08-25T13:51:36.727Z,98187.94
2022-08-25T13:54:07.100Z,98153.28
2022-08-25T13:56:41.414Z,98095.41
2022-08-25T13:59:24.372Z,98202.88
2022-08-25T14:01:52.086Z,98230.47
2022-08-25T14:04:27.638Z,98229.19
2022-08-25T14:07:15.553Z,98228.22
2022-08-25T14:09:52.160Z,98230.56
2022-08-25T14:12:36.632Z,98222.13
2022-08-25T14:15:08.839Z,98148.03
2022-08-25T14:17:39.325Z,98175.97
2022-08-25T14:20:17.206Z,98161.13
2022-08-25T14:22:44.065Z,98057.16
2022-08-25T14:25:10.766Z,98198.38
2022-08-25T14:27:56.824Z,98140.47
2022-08-25T14:30:28.653Z,98153.81
2022-08-25T14:32:56.797Z,98155.63
2022-08-25T14:35:23.495Z,98136.69
2022-08-25T14:37:50.604Z,98117.50
2022-08-25T14:40:17.281Z,98130.81
2022-08-25T14:42:44.681Z,98170.47
2022-08-25T14:45:14.564Z,98056.06
2022-08-25T14:47:41.244Z,98160.75
2022-08-25T14:50:08.331Z,98112.34
2022-08-25T14:52:35.020Z,98076.94
2022-08-25T14:55:01.975Z,98193.44
2022-08-25T14:57:28.775Z,98160.13
2022-08-25T14:59:55.496Z,98155.41
2022-08-25T15:02:29.346Z,98210.03
2022-08-25T15:05:00.294Z,98133.00
2022-08-25T15:07:29.384Z,98090.28
2022-08-25T15:09:55.955Z,98153.38
2022-08-25T15:12:46.024Z,98037.25
2022-08-25T15:15:09.919Z,98193.75
2022-08-25T15:17:41.881Z,98111.44
2022-08-25T15:20:11.962Z,98187.16
2022-08-25T15:22:38.660Z,98147.06
2022-08-25T15:25:06.297Z,98102.50
2022-08-25T15:27:34.336Z,98123.59
2022-08-25T15:30:01.045Z,98095.28
2022-08-25T15:32:27.859Z,98024.06
2022-08-25T15:34:54.658Z,97799.84
2022-08-25T15:37:21.292Z,98141.06
2022-08-25T15:39:47.962Z,98037.72
2022-08-25T15:42:14.788Z,98048.03
2022-08-25T15:44:42.199Z,98156.00
2022-08-25T15:47:21.128Z,98015.47
2022-08-25T15:49:47.845Z,98148.84
2022-08-25T15:52:14.522Z,97993.38
2022-08-25T15:54:41.173Z,98126.41
2022-08-25T15:57:08.823Z,98093.22
2022-08-25T15:59:36.132Z,98134.53
2022-08-25T16:02:14.943Z,98119.88
2022-08-25T16:04:42.178Z,98123.19
2022-08-25T16:07:09.880Z,97916.28
2022-08-25T16:09:41.246Z,98148.56
2022-08-25T16:12:08.757Z,98089.44
2022-08-25T16:14:36.609Z,98091.69
2022-08-25T16:17:04.254Z,98100.91
2022-08-25T16:19:31.738Z,98139.41
2022-08-25T16:21:59.911Z,98080.94
2022-08-25T16:24:27.188Z,98081.47
2022-08-25T16:26:55.969Z,98064.81
2022-08-25T16:29:23.489Z,98101.50
2022-08-25T16:31:54.902Z,98076.66
2022-08-25T16:34:24.455Z,98125.50
2022-08-25T16:36:52.992Z,98137.63
2022-08-25T16:39:20.773Z,98078.25
2022-08-25T16:41:47.921Z,98095.91
2022-08-25T16:44:15.342Z,97792.09
2022-08-25T16:46:42.384Z,98045.84
2022-08-25T16:49:12.308Z,98120.47
2022-08-25T16:51:40.316Z,98124.28
2022-08-25T16:54:09.256Z,98117.75
2022-08-25T16:56:37.140Z,97883.03
2022-08-25T16:59:04.965Z,97850.41
2022-08-25T17:01:33.417Z,98047.41
2022-08-25T17:04:00.160Z,98074.03
2022-08-25T17:06:32.893Z,98115.31
2022-08-25T17:08:59.963Z,98094.34
2022-08-25T17:11:29.556Z,98085.59
2022-08-25T17:14:01.036Z,98091.72
2022-08-25T17:16:35.748Z,98120.22
2022-08-25T17:19:07.383Z,98121.34
2022-08-25T17:21:45.102Z,98012.22
2022-08-25T17:24:13.275Z,98072.72
2022-08-25T17:26:42.320Z,98006.22
2022-08-25T17:29:09.737Z,97927.53
2022-08-25T17:31:37.335Z,98101.91
2022-08-25T17:34:04.214Z,98106.34
2022-08-25T17:36:30.819Z,98040.72
2022-08-25T17:38:57.525Z,97890.75
2022-08-25T17:41:24.794Z,98064.78
2022-08-25T17:43:51.458Z,98093.78
2022-08-25T17:46:18.257Z,97791.53
2022-08-25T17:48:45.170Z,97996.97
2022-08-25T17:51:12.651Z,98083.34
2022-08-25T17:53:42.487Z,98096.28
2022-08-25T17:56:15.460Z,98083.16
2022-08-25T17:58:46.218Z,98128.22
2022-08-25T18:01:23.583Z,98132.38
2022-08-25T18:03:51.025Z,98093.44
2022-08-25T18:06:18.413Z,98107.84
2022-08-25T18:08:50.276Z,98026.56
2022-08-25T18:11:20.080Z,98116.41
2022-08-25T18:13:46.793Z,98136.16
2022-08-25T18:16:13.905Z,98119.44
2022-08-25T18:18:42.522Z,97985.25
2022-08-25T18:21:14.817Z,98132.56
2022-08-25T18:23:42.394Z,97955.25
2022-08-25T18:26:12.972Z,98103.63
2022-08-25T18:28:40.262Z,97767.31
2022-08-25T18:31:10.945Z,98066.38
2022-08-25T18:33:37.714Z,98015.31
2022-08-25T18:36:09.679Z,98151.28
2022-08-25T18:38:37.420Z,97996.00
2022-08-25T18:41:07.760Z,98058.44
2022-08-25T18:43:34.968Z,98065.50
2022-08-25T18:46:03.540Z,98146.66
2022-08-25T18:48:31.852Z,98146.13
2022-08-25T18:51:00.531Z,98148.34
2022-08-25T18:53:30.510Z,97769.38
2022-08-25T18:56:05.689Z,98116.13
2022-08-25T18:58:32.440Z,98118.94
2022-08-25T19:00:59.077Z,98065.41
2022-08-25T19:03:27.488Z,98168.38
2022-08-25T19:05:57.860Z,98122.97
2022-08-25T19:08:24.974Z,98124.19
2022-08-25T19:10:52.837Z,98092.75
2022-08-25T19:13:22.733Z,98167.56
2022-08-25T19:15:51.482Z,98158.03
2022-08-25T19:18:18.838Z,98067.84
2022-08-25T19:20:52.821Z,98061.41
2022-08-25T19:23:19.943Z,98110.34
2022-08-25T19:25:46.765Z,98111.38
2022-08-25T19:28:13.720Z,98072.94
2022-08-25T19:30:49.721Z,98175.22
2022-08-25T19:33:42.241Z,98170.75
2022-08-25T19:36:08.499Z,98155.22
2022-08-25T19:38:37.218Z,98054.44
2022-08-25T19:41:10.799Z,98147.38
2022-08-25T19:43:56.051Z,98154.91
2022-08-25T19:46:37.411Z,98038.28
2022-08-25T19:49:11.243Z,98135.53
2022-08-25T19:51:40.736Z,98171.25
2022-08-25T19:54:10.146Z,98173.16
2022-08-25T19:56:53.618Z,98122.84
2022-08-25T19:59:22.791Z,98084.94
2022-08-25T20:01:49.717Z,98147.22
2022-08-25T20:04:16.723Z,98125.38
2022-08-25T20:06:43.302Z,97885.88
2022-08-25T20:09:36.040Z,98171.44
2022-08-25T20:12:04.231Z,98175.53
2022-08-25T20:14:33.445Z,98119.25
2022-08-25T20:17:22.982Z,98055.03
2022-08-25T20:19:57.371Z,98182.75
2022-08-25T20:22:26.906Z,98119.97
2022-08-25T20:24:58.020Z,98170.44
2022-08-25T20:27:32.602Z,98175.06
2022-08-25T20:29:59.914Z,98134.97
2022-08-25T20:32:29.772Z,98110.50
2022-08-25T20:34:56.641Z,98164.72
2022-08-25T20:37:23.219Z,98133.41
2022-08-25T20:39:51.228Z,98185.31
2022-08-25T20:42:17.840Z,98047.88
2022-08-25T20:44:44.511Z,98113.41
2022-08-25T20:47:11.068Z,98074.47
2022-08-25T20:49:41.513Z,98122.59
2022-08-25T20:52:08.505Z,98144.06
2022-08-25T20:54:35.448Z,98111.88
2022-08-25T20:57:02.887Z,98089.88
2022-08-25T20:59:29.600Z,98108.72
2022-08-25T21:01:56.694Z,98182.56
2022-08-25T21:04:26.967Z,98178.31
2022-08-25T21:06:53.558Z,98139.69
2022-08-25T21:09:22.613Z,98095.47
2022-08-25T21:11:52.247Z,98184.91
2022-08-25T21:14:19.563Z,98175.78
2022-08-25T21:16:46.480Z,98042.06
2022-08-25T21:19:26.582Z,98060.69
2022-08-25T21:22:00.022Z,98192.06
2022-08-25T21:24:27.466Z,98121.44
2022-08-25T21:26:56.676Z,98188.59
2022-08-25T21:29:25.232Z,98186.72
2022-08-25T21:31:52.154Z,98189.16
2022-08-25T21:34:20.019Z,98191.59
2022-08-25T21:36:48.001Z,98144.59
2022-08-25T21:39:15.330Z,98197.34
2022-08-25T21:41:42.999Z,98141.44
2022-08-25T21:44:10.941Z,98181.22
2022-08-25T21:46:37.865Z,98162.47
2022-08-25T21:49:06.711Z,98188.25
2022-08-25T21:51:41.032Z,98188.75
2022-08-25T21:54:11.211Z,98128.88
2022-08-25T21:56:41.371Z,98196.34
2022-08-25T21:59:13.295Z,98143.94
2022-08-25T22:01:40.847Z,98184.78
2022-08-25T22:04:09.096Z,98185.88
2022-08-25T22:06:36.077Z,98184.53
2022-08-25T22:09:04.523Z,98079.22
2022-08-25T22:11:31.939Z,98120.31
2022-08-25T22:14:03.731Z,98189.41
2022-08-25T22:16:33.024Z,98132.41
2022-08-25T22:18:59.726Z,98134.81
2022-08-25T22:21:28.335Z,98191.03
2022-08-25T22:23:56.008Z,98188.09
2022-08-25T22:26:24.119Z,98182.22
2022-08-25T22:28:54.096Z,98082.44
2022-08-25T22:31:21.196Z,98065.22
2022-08-25T22:33:49.659Z,98067.91
2022-08-25T22:36:17.388Z,98166.31
2022-08-25T22:38:45.947Z,98114.66
2022-08-25T22:41:13.313Z,98123.25
2022-08-25T22:43:53.444Z,98128.63
2022-08-25T22:46:21.841Z,98171.44
2022-08-25T22:48:50.256Z,98122.75
2022-08-25T22:51:23.202Z,98150.19
2022-08-25T22:53:50.869Z,98164.19
2022-08-25T22:56:21.351Z,98149.38
2022-08-25T22:58:51.798Z,98109.03
2022-08-25T23:01:19.972Z,98162.56
2022-08-25T23:03:47.674Z,98084.31
2022-08-25T23:06:24.490Z,98100.97
2022-08-25T23:08:53.696Z,98164.97
2022-08-25T23:11:23.839Z,98160.13
2022-08-25T23:13:50.801Z,98099.59
2022-08-25T23:16:18.056Z,98126.75
2022-08-25T23:18:45.252Z,98146.44
2022-08-25T23:21:12.606Z,98083.75
2022-08-25T23:23:42.267Z,98064.13
2022-08-25T23:26:10.481Z,98160.94
2022-08-25T23:28:37.238Z,98078.63
2022-08-25T23:31:09.482Z,98148.59
2022-08-25T23:33:39.517Z,98150.19
2022-08-25T23:36:09.330Z,98157.69
2022-08-25T23:38:39.350Z,98156.38
2022-08-25T23:41:07.628Z,98139.94
2022-08-25T23:43:36.205Z,98152.06
2022-08-25T23:46:03.208Z,98094.22
2022-08-25T23:48:30.350Z,98109.84
2022-08-25T23:50:57.650Z,98101.75
2022-08-25T23:53:25.224Z,98080.50
2022-08-25T23:55:53.063Z,98071.94
2022-08-25T23:58:20.753Z,98113.03
